Time;durP1;ratioP1;P1;durP2;ratioP2;P2;SDS_P1;SDS_P2;PMS_P1;PMS_P2;Temp;Humidity;BMP_temperature;BMP_pressure;BME280_temperature;BME280_humidity;BME280_pressure;Samples;Min_cycle;Max_cycle;Signal;HPM_P1;HPM_P2
2021/05/05 00:01:07;;;;;;;2.72;1.20;;;7.60;82.50;;;;;;5073066;28;20082;-73
2021/05/05 00:03:33;;;;;;;2.55;1.20;;;7.60;82.50;;;;;;5073042;28;20025;-73
2021/05/05 00:05:59;;;;;;;3.58;1.40;;;7.70;82.50;;;;;;5072898;28;20029;-73
2021/05/05 00:08:25;;;;;;;6.43;1.67;;;7.70;82.40;;;;;;5074052;28;20047;-72
2021/05/05 00:10:51;;;;;;;6.88;1.52;;;7.80;82.40;;;;;;5074436;28;20499;-73
2021/05/05 00:13:17;;;;;;;4.75;1.60;;;7.80;82.20;;;;;;5074165;28;20028;-73
2021/05/05 00:15:43;;;;;;;4.65;1.15;;;7.80;82.00;;;;;;5074010;28;20020;-72
2021/05/05 00:18:09;;;;;;;5.07;1.38;;;7.90;81.90;;;;;;5073886;28;20115;-73
2021/05/05 00:20:35;;;;;;;5.20;1.73;;;7.90;81.80;;;;;;5072622;28;20379;-73
2021/05/05 00:23:01;;;;;;;3.42;1.27;;;7.90;81.70;;;;;;5072750;28;20437;-73
2021/05/05 00:25:27;;;;;;;3.28;1.35;;;7.90;81.50;;;;;;5072528;28;20106;-73
2021/05/05 00:27:52;;;;;;;3.45;1.40;;;7.80;81.50;;;;;;5072405;28;20158;-73
2021/05/05 00:30:20;;;;;;;4.22;1.10;;;7.80;81.40;;;;;;5072523;28;20444;-74
2021/05/05 00:32:45;;;;;;;4.30;1.40;;;7.80;81.40;;;;;;5072426;28;20078;-74
2021/05/05 00:35:13;;;;;;;3.75;1.30;;;7.80;81.40;;;;;;5073819;28;20036;-74
2021/05/05 00:37:39;;;;;;;3.65;1.27;;;7.80;81.50;;;;;;5073707;28;20024;-74
2021/05/05 00:40:06;;;;;;;3.88;1.48;;;7.80;81.50;;;;;;5074120;28;20028;-73
2021/05/05 00:42:31;;;;;;;4.00;1.20;;;7.80;81.50;;;;;;5072288;28;20119;-73
2021/05/05 00:44:59;;;;;;;6.95;1.38;;;7.80;81.40;;;;;;5072299;28;20440;-75
2021/05/05 00:47:25;;;;;;;5.22;1.45;;;7.80;81.30;;;;;;5072176;28;20028;-73
2021/05/05 00:49:52;;;;;;;4.32;1.55;;;7.80;81.30;;;;;;5072214;28;20031;-73
2021/05/05 00:52:18;;;;;;;9.07;1.80;;;7.80;81.10;;;;;;5072191;28;20439;-73
2021/05/05 00:54:44;;;;;;;2.53;1.13;;;7.80;81.10;;;;;;5072901;28;20021;-74
2021/05/05 00:57:11;;;;;;;5.38;1.55;;;7.80;81.10;;;;;;5073383;28;20115;-74
2021/05/05 00:59:36;;;;;;;6.03;1.58;;;7.80;81.10;;;;;;5073320;28;20365;-73
2021/05/05 01:02:02;;;;;;;7.93;2.00;;;7.70;81.10;;;;;;5071593;28;20025;-73
2021/05/05 01:04:28;;;;;;;4.15;1.58;;;7.70;81.10;;;;;;5071904;28;20090;-73
2021/05/05 01:06:54;;;;;;;7.65;1.80;;;7.70;81.10;;;;;;5071958;28;20029;-73
2021/05/05 01:09:20;;;;;;;5.55;1.90;;;7.70;81.10;;;;;;5071907;28;20024;-74
2021/05/05 01:11:46;;;;;;;7.55;1.67;;;7.70;81.10;;;;;;5071929;28;20062;-73
2021/05/05 01:14:12;;;;;;;5.40;1.50;;;7.70;81.10;;;;;;5071946;28;20028;-74
2021/05/05 01:16:38;;;;;;;3.38;1.55;;;7.70;81.10;;;;;;5073029;28;20039;-73
2021/05/05 01:19:04;;;;;;;5.20;1.75;;;7.70;81.00;;;;;;5071875;28;20032;-72
2021/05/05 01:21:30;;;;;;;5.43;1.95;;;7.70;80.90;;;;;;5072931;28;20104;-73
2021/05/05 01:23:55;;;;;;;5.60;1.77;;;7.80;80.90;;;;;;5071634;28;20088;-73
2021/05/05 01:26:21;;;;;;;5.18;2.20;;;7.80;80.80;;;;;;5071508;28;20028;-73
2021/05/05 01:28:47;;;;;;;7.43;2.05;;;7.80;80.70;;;;;;5071630;28;20028;-73
2021/05/05 01:31:15;;;;;;;5.53;1.90;;;7.80;80.50;;;;;;5071755;28;20329;-73
2021/05/05 01:33:41;;;;;;;4.65;1.88;;;7.80;81.20;;;;;;5071718;28;20033;-74
2021/05/05 01:36:10;;;;;;;6.13;1.77;;;7.80;80.60;;;;;;5071762;28;20032;-73
2021/05/05 01:38:37;;;;;;;2.67;1.40;;;7.80;80.60;;;;;;5072837;28;20029;-73
2021/05/05 01:41:04;;;;;;;5.50;1.52;;;7.80;80.50;;;;;;5073008;28;20042;-74
2021/05/05 01:43:30;;;;;;;5.25;1.58;;;7.70;80.70;;;;;;5071537;28;20074;-74
2021/05/05 01:45:56;;;;;;;3.35;1.20;;;7.60;81.00;;;;;;5071588;28;20036;-74
2021/05/05 01:48:25;;;;;;;4.38;1.30;;;7.40;81.40;;;;;;5071539;28;20108;-73
2021/05/05 01:50:50;;;;;;;3.92;1.15;;;7.30;81.90;;;;;;5071709;28;20037;-73
2021/05/05 01:53:17;;;;;;;2.70;1.20;;;7.20;82.20;;;;;;5072862;28;20472;-74
2021/05/05 01:55:47;;;;;;;1.92;1.20;;;7.10;82.40;;;;;;5071573;28;20032;-74
2021/05/05 01:58:13;;;;;;;5.30;1.67;;;7.10;82.70;;;;;;5071526;28;20028;-74
2021/05/05 02:00:40;;;;;;;5.68;1.50;;;7.10;82.90;;;;;;5071343;28;20028;-74
2021/05/05 02:03:06;;;;;;;7.35;1.40;;;7.10;83.10;;;;;;5071525;28;20089;-74
2021/05/05 02:05:32;;;;;;;4.85;1.48;;;7.10;83.40;;;;;;5071381;28;20111;-73
2021/05/05 02:07:58;;;;;;;4.93;1.20;;;7.00;83.50;;;;;;5072879;28;20075;-73
2021/05/05 02:10:26;;;;;;;4.93;1.50;;;6.90;83.80;;;;;;5072618;28;20044;-73
2021/05/05 02:12:52;;;;;;;6.85;1.50;;;6.90;84.00;;;;;;5071311;28;20029;-73
2021/05/05 02:15:19;;;;;;;5.15;1.50;;;6.80;83.90;;;;;;5074551;28;20021;-74
2021/05/05 02:17:49;;;;;;;8.07;1.52;;;6.80;84.00;;;;;;5075084;28;20025;-73
2021/05/05 02:20:17;;;;;;;3.33;1.10;;;6.80;84.20;;;;;;5076074;28;20021;-73
2021/05/05 02:22:43;;;;;;;8.13;1.60;;;6.80;84.20;;;;;;5076141;28;20024;-73
2021/05/05 02:25:10;;;;;;;6.45;1.40;;;6.80;84.40;;;;;;5075045;28;20440;-74
2021/05/05 02:27:38;;;;;;;8.07;1.38;;;6.80;84.40;;;;;;5074765;28;20111;-73
2021/05/05 02:30:08;;;;;;;6.43;1.48;;;6.70;84.60;;;;;;5076313;28;20412;-74
2021/05/05 02:32:35;;;;;;;6.00;1.40;;;6.70;85.00;;;;;;5074816;28;20112;-74
2021/05/05 02:35:00;;;;;;;7.40;1.60;;;6.60;84.90;;;;;;5076082;28;20025;-73
2021/05/05 02:37:26;;;;;;;3.97;1.30;;;6.60;85.00;;;;;;5074813;28;20033;-74
2021/05/05 02:39:52;;;;;;;2.50;1.27;;;6.60;85.00;;;;;;5074809;28;20472;-75
2021/05/05 02:42:19;;;;;;;7.22;1.42;;;6.60;85.10;;;;;;5074709;28;20522;-74
2021/05/05 02:44:48;;;;;;;7.22;2.15;;;6.60;85.20;;;;;;5075899;28;20021;-74
2021/05/05 02:47:15;;;;;;;6.25;1.50;;;6.60;85.40;;;;;;5076435;28;20452;-74
2021/05/05 02:49:40;;;;;;;4.82;1.67;;;6.60;85.40;;;;;;5074587;28;20016;-74
2021/05/05 02:52:06;;;;;;;5.85;1.30;;;6.60;85.40;;;;;;5075839;28;20054;-74
2021/05/05 02:54:32;;;;;;;7.93;1.88;;;6.60;85.40;;;;;;5076259;28;20561;-76
2021/05/05 02:56:58;;;;;;;6.85;1.40;;;6.60;85.50;;;;;;5075873;28;20052;-74
2021/05/05 02:59:25;;;;;;;4.45;1.27;;;6.70;85.50;;;;;;5075721;28;20020;-74
2021/05/05 03:01:55;;;;;;;4.78;1.50;;;6.70;85.40;;;;;;5076322;28;20030;-74
2021/05/05 03:04:20;;;;;;;5.43;1.70;;;6.80;85.40;;;;;;5074408;28;20071;-74
2021/05/05 03:06:46;;;;;;;7.13;1.63;;;6.70;85.40;;;;;;5075524;28;20020;-75
2021/05/05 03:09:15;;;;;;;7.03;1.65;;;6.80;85.40;;;;;;5075475;28;20021;-74
2021/05/05 03:11:40;;;;;;;8.02;1.90;;;6.80;85.60;;;;;;5076109;28;20020;-74
2021/05/05 03:14:06;;;;;;;6.63;1.80;;;6.70;85.60;;;;;;5074262;28;20027;-74
2021/05/05 03:16:32;;;;;;;6.20;2.20;;;6.70;85.80;;;;;;5075538;28;20025;-73
2021/05/05 03:18:58;;;;;;;7.55;2.03;;;6.70;85.80;;;;;;5074138;28;20020;-73
2021/05/05 03:21:23;;;;;;;8.32;2.17;;;6.70;85.90;;;;;;5074104;28;20052;-73
2021/05/05 03:23:49;;;;;;;14.02;6.82;;;6.70;86.10;;;;;;5073924;28;20059;-74
2021/05/05 03:26:15;;;;;;;12.13;3.08;;;6.70;86.10;;;;;;5073617;28;20023;-74
2021/05/05 03:28:40;;;;;;;7.45;2.20;;;6.70;86.00;;;;;;5073956;28;20801;-74
2021/05/05 03:31:06;;;;;;;11.52;2.55;;;6.70;86.00;;;;;;5075212;28;20016;-74
2021/05/05 03:33:32;;;;;;;8.25;2.20;;;6.70;86.10;;;;;;5073843;28;20384;-74
2021/05/05 03:35:58;;;;;;;5.70;1.92;;;6.60;86.20;;;;;;5075130;28;20028;-74
2021/05/05 03:38:24;;;;;;;5.70;2.00;;;6.70;86.30;;;;;;5073743;28;20485;-74
2021/05/05 03:40:50;;;;;;;4.72;1.90;;;6.70;86.30;;;;;;5075023;28;20020;-74
2021/05/05 03:43:16;;;;;;;6.78;2.00;;;6.70;86.30;;;;;;5075292;28;20036;-74
2021/05/05 03:45:41;;;;;;;9.30;2.60;;;6.70;86.30;;;;;;5074808;28;20021;-74
2021/05/05 03:48:08;;;;;;;8.60;2.70;;;6.70;86.40;;;;;;5074925;28;20020;-74
2021/05/05 03:50:38;;;;;;;8.25;2.72;;;6.70;86.40;;;;;;5074778;28;20020;-74
2021/05/05 03:53:03;;;;;;;5.07;2.28;;;6.70;86.50;;;;;;5074860;28;20025;-74
2021/05/05 03:55:29;;;;;;;9.52;2.33;;;6.70;86.50;;;;;;5075146;28;20078;-74
2021/05/05 03:57:55;;;;;;;10.68;3.33;;;6.70;86.50;;;;;;5073270;28;20058;-74
2021/05/05 04:00:21;;;;;;;11.45;3.33;;;6.70;86.50;;;;;;5074525;28;20107;-74
2021/05/05 04:02:46;;;;;;;5.28;2.25;;;6.60;86.40;;;;;;5073195;28;20024;-74
2021/05/05 04:05:13;;;;;;;4.90;2.35;;;6.60;86.40;;;;;;5074328;28;20090;-73
2021/05/05 04:07:38;;;;;;;7.13;2.40;;;6.60;86.50;;;;;;5072839;28;20034;-73
2021/05/05 04:10:06;;;;;;;13.48;2.97;;;6.60;86.50;;;;;;5074366;28;20032;-73
2021/05/05 04:12:31;;;;;;;8.52;3.00;;;6.60;86.60;;;;;;5072977;28;20025;-73
2021/05/05 04:14:57;;;;;;;7.80;3.20;;;6.60;86.50;;;;;;5073451;28;20019;-73
2021/05/05 04:17:24;;;;;;;6.15;2.70;;;6.60;86.50;;;;;;5074548;28;20039;-73
2021/05/05 04:19:53;;;;;;;5.43;2.40;;;6.60;86.50;;;;;;5074073;28;20104;-73
2021/05/05 04:22:19;;;;;;;11.30;2.78;;;6.60;87.00;;;;;;5072815;28;20400;-73
2021/05/05 04:24:44;;;;;;;10.77;2.40;;;6.60;86.30;;;;;;5072377;28;20047;-74
2021/05/05 04:27:12;;;;;;;5.97;2.42;;;6.60;86.20;;;;;;5074039;28;20059;-73
2021/05/05 04:29:38;;;;;;;8.02;2.22;;;6.60;86.10;;;;;;5074137;28;20021;-73
2021/05/05 04:32:04;;;;;;;7.22;2.60;;;6.60;86.00;;;;;;5072472;28;20460;-73
2021/05/05 04:34:29;;;;;;;6.97;2.30;;;6.50;85.90;;;;;;5072470;28;20028;-73
2021/05/05 04:36:55;;;;;;;5.57;2.08;;;6.50;86.50;;;;;;5073055;28;20107;-73
2021/05/05 04:39:21;;;;;;;7.70;2.45;;;6.50;86.00;;;;;;5072366;28;20032;-74
2021/05/05 04:41:47;;;;;;;5.00;2.03;;;6.50;85.90;;;;;;5072445;28;20365;-73
2021/05/05 04:44:13;;;;;;;7.35;1.73;;;6.60;85.90;;;;;;5073631;28;20133;-73
2021/05/05 04:46:39;;;;;;;8.32;1.70;;;6.60;85.70;;;;;;5072293;28;20440;-73
2021/05/05 04:49:04;;;;;;;9.32;2.00;;;6.70;85.70;;;;;;5073516;28;20032;-73
2021/05/05 04:51:31;;;;;;;5.45;1.85;;;6.70;85.60;;;;;;5073497;28;20020;-73
2021/05/05 04:53:56;;;;;;;5.25;1.80;;;6.80;85.50;;;;;;5072267;28;20017;-73
2021/05/05 04:56:22;;;;;;;9.23;2.35;;;6.80;85.50;;;;;;5073476;28;20023;-73
2021/05/05 04:58:48;;;;;;;5.57;2.50;;;6.80;85.50;;;;;;5073364;28;20096;-73
2021/05/05 05:01:13;;;;;;;11.85;2.75;;;6.80;85.40;;;;;;5072556;28;20521;-74
2021/05/05 05:03:39;;;;;;;6.35;2.70;;;6.80;85.50;;;;;;5073384;28;20357;-73
2021/05/05 05:06:04;;;;;;;6.90;2.35;;;6.90;85.50;;;;;;5072118;28;20024;-73
2021/05/05 05:08:30;;;;;;;7.78;2.63;;;6.90;85.40;;;;;;5072051;28;20021;-73
2021/05/05 05:10:56;;;;;;;6.57;2.30;;;6.90;85.30;;;;;;5071852;28;20024;-74
2021/05/05 05:13:22;;;;;;;5.13;2.00;;;6.90;85.10;;;;;;5071779;28;20480;-73
2021/05/05 05:15:47;;;;;;;7.45;2.67;;;6.90;85.10;;;;;;5071805;28;20058;-74
2021/05/05 05:18:13;;;;;;;4.40;2.05;;;6.90;85.00;;;;;;5071787;28;20059;-73
2021/05/05 05:20:39;;;;;;;8.88;2.10;;;6.80;85.00;;;;;;5071815;28;20125;-73
2021/05/05 05:23:05;;;;;;;6.45;2.17;;;6.90;85.00;;;;;;5071722;28;20051;-73
2021/05/05 05:25:30;;;;;;;4.40;1.83;;;6.90;85.00;;;;;;5071803;28;20025;-73
2021/05/05 05:27:56;;;;;;;2.90;2.00;;;6.80;85.00;;;;;;5071747;28;20391;-73
2021/05/05 05:30:23;;;;;;;6.38;2.80;;;6.80;84.90;;;;;;5071762;28;20415;-73
2021/05/05 05:32:49;;;;;;;4.10;2.10;;;6.80;85.00;;;;;;5071743;28;20021;-73
2021/05/05 05:35:15;;;;;;;6.32;2.20;;;6.80;85.10;;;;;;5071585;28;20013;-73
2021/05/05 05:37:41;;;;;;;8.80;2.50;;;6.80;85.00;;;;;;5071640;28;20072;-73
2021/05/05 05:40:09;;;;;;;5.75;2.42;;;6.80;85.00;;;;;;5071606;28;20381;-73
2021/05/05 05:42:35;;;;;;;5.25;2.30;;;6.90;85.00;;;;;;5072862;28;20045;-73
2021/05/05 05:45:00;;;;;;;4.22;2.35;;;6.90;84.90;;;;;;5072949;28;20048;-73
2021/05/05 05:47:27;;;;;;;6.97;2.38;;;6.80;84.80;;;;;;5073035;28;20036;-74
2021/05/05 05:49:55;;;;;;;7.95;2.78;;;6.90;84.90;;;;;;5077081;28;20460;-73
2021/05/05 05:52:21;;;;;;;4.93;2.10;;;6.80;84.90;;;;;;5076911;28;20059;-74
2021/05/05 05:54:47;;;;;;;5.68;2.17;;;6.80;84.90;;;;;;5076931;28;20059;-73
2021/05/05 05:57:12;;;;;;;4.22;2.10;;;6.80;84.90;;;;;;5076781;28;20021;-73
2021/05/05 05:59:38;;;;;;;8.07;2.05;;;6.90;85.00;;;;;;5075483;28;20028;-73
2021/05/05 06:02:04;;;;;;;10.05;2.30;;;6.90;84.80;;;;;;5077045;28;20031;-74
2021/05/05 06:04:30;;;;;;;4.25;1.90;;;7.00;84.60;;;;;;5075335;28;20064;-73
2021/05/05 06:06:55;;;;;;;4.57;1.85;;;7.10;84.50;;;;;;5075112;28;20036;-72
2021/05/05 06:09:24;;;;;;;4.18;1.80;;;7.10;84.20;;;;;;5076287;28;20035;-73
2021/05/05 06:11:52;;;;;;;4.10;1.83;;;7.20;83.90;;;;;;5076360;28;20361;-73
2021/05/05 06:14:18;;;;;;;4.43;1.63;;;7.30;83.60;;;;;;5074944;28;20020;-73
2021/05/05 06:16:44;;;;;;;5.50;1.70;;;7.40;83.50;;;;;;5075028;28;20021;-73
2021/05/05 06:19:12;;;;;;;6.72;2.35;;;7.40;82.90;;;;;;5075247;28;20031;-73
2021/05/05 06:21:38;;;;;;;4.72;1.80;;;7.40;82.50;;;;;;5074924;28;20016;-73
2021/05/05 06:24:05;;;;;;;6.32;2.67;;;7.40;82.40;;;;;;5076126;28;20098;-74
2021/05/05 06:26:30;;;;;;;7.40;2.15;;;7.40;82.30;;;;;;5074725;28;20063;-73
2021/05/05 06:28:56;;;;;;;5.32;2.13;;;7.40;82.20;;;;;;5074682;28;20376;-73
2021/05/05 06:31:21;;;;;;;3.33;1.80;;;7.40;82.30;;;;;;5074793;28;20021;-73
2021/05/05 06:33:47;;;;;;;4.05;1.80;;;7.40;82.30;;;;;;5074675;28;20021;-72
2021/05/05 06:36:13;;;;;;;3.40;1.70;;;7.40;82.30;;;;;;5074507;28;20020;-72
2021/05/05 06:38:38;;;;;;;8.73;1.83;;;7.40;82.10;;;;;;5076204;28;20024;-73
2021/05/05 06:41:04;;;;;;;9.32;1.92;;;7.50;81.70;;;;;;5076402;28;20025;-73
2021/05/05 06:43:31;;;;;;;6.82;2.38;;;7.50;81.00;;;;;;5074560;28;20028;-73
2021/05/05 06:45:57;;;;;;;6.55;1.80;;;7.50;81.20;;;;;;5075666;28;20166;-73
2021/05/05 06:48:22;;;;;;;7.30;2.03;;;7.50;81.20;;;;;;5076155;28;20048;-73
2021/05/05 06:50:48;;;;;;;6.10;1.77;;;7.60;81.20;;;;;;5075614;28;20443;-73
2021/05/05 06:53:14;;;;;;;7.57;2.10;;;7.70;81.10;;;;;;5076082;28;20483;-73
2021/05/05 06:55:40;;;;;;;7.10;2.40;;;7.70;80.90;;;;;;5074218;28;20092;-73
2021/05/05 06:58:05;;;;;;;5.53;1.70;;;7.80;81.20;;;;;;5074294;28;20590;-73
2021/05/05 07:00:31;;;;;;;5.13;1.90;;;7.90;80.30;;;;;;5074868;28;20078;-73
2021/05/05 07:02:57;;;;;;;7.72;2.10;;;8.00;80.10;;;;;;5075430;28;20032;-73
2021/05/05 07:05:22;;;;;;;6.63;2.15;;;8.00;79.70;;;;;;5074205;28;20062;-73
2021/05/05 07:07:48;;;;;;;7.15;1.80;;;8.00;79.60;;;;;;5073990;28;20377;-73
2021/05/05 07:10:14;;;;;;;8.60;2.08;;;8.00;78.90;;;;;;5075364;28;20027;-73
2021/05/05 07:12:40;;;;;;;5.45;2.22;;;8.00;79.00;;;;;;5073822;28;20024;-73
2021/05/05 07:15:06;;;;;;;6.32;1.95;;;8.00;78.60;;;;;;5073836;28;20024;-73
2021/05/05 07:17:32;;;;;;;8.90;2.03;;;8.00;78.70;;;;;;5073771;28;20025;-73
2021/05/05 07:19:58;;;;;;;8.50;1.60;;;8.10;78.90;;;;;;5073807;28;20024;-73
2021/05/05 07:22:23;;;;;;;4.70;1.70;;;8.20;79.00;;;;;;5073779;28;20464;-73
2021/05/05 07:24:49;;;;;;;7.03;1.70;;;8.30;78.80;;;;;;5073729;28;20458;-73
2021/05/05 07:27:16;;;;;;;6.35;1.65;;;8.40;78.40;;;;;;5074965;28;20485;-73
2021/05/05 07:29:42;;;;;;;4.50;1.50;;;8.40;78.20;;;;;;5075273;28;20484;-73
2021/05/05 07:32:07;;;;;;;5.25;1.80;;;8.40;78.00;;;;;;5074992;28;20016;-73
2021/05/05 07:34:34;;;;;;;7.43;1.75;;;8.40;78.10;;;;;;5074744;28;20023;-73
2021/05/05 07:37:10;;;;;;;6.07;1.80;;;8.40;77.50;;;;;;5073687;28;20047;-73
2021/05/05 07:47:42;;;;;;;4.85;1.52;;;8.40;76.70;;;;;;5074636;28;20051;-74
2021/05/05 07:50:11;;;;;;;5.03;1.55;;;8.50;76.70;;;;;;5074988;28;20025;-73
2021/05/05 07:52:37;;;;;;;6.60;1.88;;;8.50;76.20;;;;;;5074475;28;20024;-73
2021/05/05 07:55:05;;;;;;;4.53;1.48;;;8.50;76.00;;;;;;5074602;28;20459;-73
2021/05/05 07:57:31;;;;;;;6.22;1.80;;;8.50;75.80;;;;;;5073199;28;20016;-73
2021/05/05 07:59:56;;;;;;;7.35;1.92;;;8.70;76.00;;;;;;5074520;28;20491;-74
2021/05/05 08:02:22;;;;;;;6.40;1.60;;;8.90;75.60;;;;;;5073082;28;20451;-74
2021/05/05 08:04:50;;;;;;;8.55;2.10;;;9.00;75.80;;;;;;5072976;28;20032;-74
2021/05/05 08:07:18;;;;;;;8.25;2.05;;;8.90;75.40;;;;;;5072851;28;20028;-74
2021/05/05 08:09:45;;;;;;;9.85;2.22;;;8.90;75.90;;;;;;5074210;28;20074;-74
2021/05/05 08:12:12;;;;;;;8.52;2.03;;;8.70;76.20;;;;;;5072828;28;20032;-74
2021/05/05 08:14:39;;;;;;;5.07;1.60;;;8.50;78.00;;;;;;5072999;28;20508;-74
2021/05/05 08:17:05;;;;;;;6.85;1.60;;;8.20;78.20;;;;;;5074156;28;20021;-74
2021/05/05 08:19:31;;;;;;;4.80;1.40;;;7.90;79.70;;;;;;5072797;28;20494;-73
2021/05/05 08:21:56;;;;;;;7.90;1.80;;;7.60;80.90;;;;;;5072769;28;20035;-73
2021/05/05 08:24:22;;;;;;;5.90;1.30;;;7.50;81.70;;;;;;5072517;28;20450;-73
2021/05/05 08:26:48;;;;;;;4.18;1.13;;;7.40;82.70;;;;;;5074334;28;20029;-72
2021/05/05 08:29:14;;;;;;;3.85;1.35;;;7.40;83.10;;;;;;5072462;28;20046;-73
2021/05/05 08:31:42;;;;;;;4.05;1.10;;;7.40;83.40;;;;;;5073699;28;20046;-74
2021/05/05 08:34:07;;;;;;;3.35;1.00;;;7.50;83.20;;;;;;5073621;28;20020;-74
2021/05/05 08:36:33;;;;;;;6.03;1.13;;;7.60;83.00;;;;;;5072051;28;20487;-73
2021/05/05 08:38:58;;;;;;;4.80;1.30;;;7.70;83.10;;;;;;5072209;28;20020;-74
2021/05/05 08:41:24;;;;;;;7.78;2.28;;;7.80;83.10;;;;;;5073503;28;20146;-73
2021/05/05 08:43:51;;;;;;;5.90;1.52;;;7.90;83.00;;;;;;5073094;28;20048;-74
2021/05/05 08:46:17;;;;;;;4.45;1.30;;;8.00;83.00;;;;;;5071997;28;20132;-74
2021/05/05 08:48:45;;;;;;;3.80;1.08;;;8.00;82.80;;;;;;5073344;28;20028;-74
2021/05/05 08:51:12;;;;;;;4.97;1.45;;;8.00;82.80;;;;;;5073395;28;20016;-73
2021/05/05 08:53:41;;;;;;;5.75;1.52;;;8.10;82.80;;;;;;5073306;28;20380;-74
2021/05/05 08:56:08;;;;;;;4.38;1.10;;;8.20;82.60;;;;;;5071939;28;20017;-74
2021/05/05 08:58:34;;;;;;;1.80;1.10;;;8.30;82.40;;;;;;5071963;28;20209;-74
2021/05/05 09:01:00;;;;;;;6.05;1.23;;;8.40;82.20;;;;;;5073312;28;20507;-73
2021/05/05 09:03:34;;;;;;;5.43;1.42;;;8.50;82.00;;;;;;5071947;28;20142;-73
2021/05/05 09:06:00;;;;;;;7.30;1.38;;;8.70;81.30;;;;;;5073267;28;20017;-74
2021/05/05 09:08:28;;;;;;;5.00;1.38;;;8.80;81.10;;;;;;5073125;28;20054;-73
2021/05/05 09:10:56;;;;;;;5.32;1.50;;;8.90;80.50;;;;;;5071936;28;20103;-74
2021/05/05 09:13:52;;;;;;;6.03;1.50;;;8.90;80.00;;;;;;5073204;28;20025;-74
2021/05/05 09:16:30;;;;;;;5.35;1.10;;;8.80;79.60;;;;;;5071790;28;20343;-73
2021/05/05 09:19:06;;;;;;;2.70;1.10;;;8.60;80.00;;;;;;5071739;28;20031;-74
2021/05/05 09:21:39;;;;;;;5.63;1.40;;;8.40;80.50;;;;;;5072942;28;20162;-74
2021/05/05 09:24:15;;;;;;;3.90;1.15;;;8.40;80.90;;;;;;5072376;28;20097;-74
2021/05/05 09:26:42;;;;;;;4.90;1.33;;;8.40;81.30;;;;;;5071650;28;20043;-73
2021/05/05 09:29:08;;;;;;;5.97;1.60;;;8.60;81.50;;;;;;5072999;28;20207;-74
2021/05/05 09:31:37;;;;;;;4.50;1.63;;;8.80;81.30;;;;;;5072915;28;20040;-73
2021/05/05 09:34:06;;;;;;;8.07;1.80;;;8.90;80.70;;;;;;5071679;28;20476;-73
2021/05/05 09:36:31;;;;;;;4.75;1.50;;;8.90;80.30;;;;;;5071609;28;20020;-73
2021/05/05 09:39:02;;;;;;;4.40;1.52;;;8.80;80.00;;;;;;5071548;28;20535;-73
2021/05/05 09:41:32;;;;;;;5.90;1.70;;;8.70;80.10;;;;;;5072810;28;20028;-74
2021/05/05 09:44:05;;;;;;;7.78;2.00;;;8.60;80.20;;;;;;5072886;28;20025;-73
2021/05/05 09:46:30;;;;;;;4.00;1.55;;;8.60;80.40;;;;;;5071509;28;20392;-73
2021/05/05 09:49:15;;;;;;;4.82;1.48;;;8.60;80.30;;;;;;5072879;28;20028;-73
2021/05/05 09:51:59;;;;;;;4.95;1.50;;;8.50;80.20;;;;;;5071578;28;20031;-74
2021/05/05 09:54:40;;;;;;;9.88;1.92;;;8.60;80.10;;;;;;5071529;28;20038;-73
2021/05/05 09:57:32;;;;;;;4.32;1.50;;;8.70;79.40;;;;;;5071563;28;20604;-74
2021/05/05 10:03:59;;;;;;;8.38;1.50;;;9.00;77.70;;;;;;5072936;28;20498;-73
2021/05/05 10:06:37;;;;;;;4.93;1.83;;;9.20;77.80;;;;;;5072909;28;20052;-73
2021/05/05 10:09:11;;;;;;;7.20;1.83;;;9.30;77.40;;;;;;5072768;28;20032;-73
2021/05/05 10:11:40;;;;;;;7.32;1.48;;;9.40;76.10;;;;;;5072885;28;20056;-74
2021/05/05 10:14:13;;;;;;;6.78;1.40;;;9.40;75.00;;;;;;5072721;28;20086;-74
2021/05/05 10:16:41;;;;;;;9.55;2.28;;;9.20;75.80;;;;;;5072699;28;20476;-73
2021/05/05 10:19:26;;;;;;;4.90;1.42;;;9.10;76.20;;;;;;5072587;28;20126;-73
2021/05/05 10:21:54;;;;;;;7.13;1.80;;;9.00;76.10;;;;;;5071256;28;20097;-73
2021/05/05 10:24:24;;;;;;;8.90;1.77;;;8.90;76.60;;;;;;5070848;28;20047;-73
2021/05/05 10:26:51;;;;;;;6.03;1.77;;;9.00;76.90;;;;;;5071164;28;20081;-73
2021/05/05 10:29:17;;;;;;;3.30;1.15;;;9.10;76.80;;;;;;5071287;28;20036;-73
2021/05/05 10:31:49;;;;;;;5.47;1.20;;;9.30;76.50;;;;;;5072504;28;20025;-72
2021/05/05 10:34:21;;;;;;;5.82;1.35;;;9.40;76.00;;;;;;5071180;28;20028;-73
2021/05/05 10:36:59;;;;;;;4.65;1.38;;;9.30;75.60;;;;;;5076096;28;20029;-72
2021/05/05 10:39:26;;;;;;;6.82;1.58;;;9.20;76.30;;;;;;5074980;28;20028;-72
2021/05/05 10:42:01;;;;;;;8.02;1.75;;;9.30;76.30;;;;;;5074774;28;20038;-73
2021/05/05 10:44:37;;;;;;;7.22;1.88;;;9.40;76.30;;;;;;5076223;28;20043;-73
2021/05/05 10:47:31;;;;;;;5.28;1.77;;;9.50;76.10;;;;;;5075868;28;20037;-73
2021/05/05 10:50:10;;;;;;;5.38;1.40;;;9.60;76.00;;;;;;5075691;28;20036;-72
2021/05/05 10:52:42;;;;;;;10.98;1.60;;;9.80;75.80;;;;;;5074508;28;20036;-73
2021/05/05 10:55:18;;;;;;;10.18;1.80;;;10.00;74.40;;;;;;5074418;28;20100;-73
2021/05/05 10:58:25;;;;;;;5.63;1.50;;;10.00;72.40;;;;;;5075663;28;20021;-72
2021/05/05 11:00:55;;;;;;;7.15;2.25;;;10.10;73.00;;;;;;5073522;28;20028;-73
2021/05/05 11:03:42;;;;;;;7.55;1.70;;;10.20;73.00;;;;;;5056631;28;20034;-72
2021/05/05 11:06:29;;;;;;;5.97;1.60;;;10.40;72.30;;;;;;5073424;28;20567;-73
2021/05/05 11:09:09;;;;;;;8.82;1.98;;;10.50;72.20;;;;;;5073343;28;20569;-72
2021/05/05 11:11:55;;;;;;;7.53;1.67;;;10.70;71.50;;;;;;5056593;28;20123;-73
2021/05/05 11:14:24;;;;;;;5.90;1.55;;;10.70;71.60;;;;;;5073129;28;20106;-73
2021/05/05 11:16:59;;;;;;;7.03;1.90;;;10.90;71.30;;;;;;5073142;28;20369;-73
2021/05/05 11:19:37;;;;;;;7.88;1.80;;;11.00;70.20;;;;;;5056443;28;20101;-73
2021/05/05 11:22:33;;;;;;;5.80;1.85;;;11.10;70.10;;;;;;5056367;28;20147;-73
2021/05/05 11:25:16;;;;;;;7.53;1.83;;;11.10;69.40;;;;;;5072910;28;20491;-72
2021/05/05 11:27:47;;;;;;;;;;;10.80;70.00;;;;;;5073367;28;20037;-73
2021/05/05 11:30:28;;;;;;;6.43;1.90;;;10.80;71.20;;;;;;5072994;28;20307;-73
2021/05/05 11:32:55;;;;;;;4.68;1.52;;;10.90;71.30;;;;;;5075116;28;20387;-73
2021/05/05 11:35:29;;;;;;;5.85;1.80;;;11.00;70.80;;;;;;5073655;28;20024;-73
2021/05/05 11:38:04;;;;;;;;;;;11.00;69.60;;;;;;5075442;28;20048;-73
2021/05/05 11:41:16;;;;;;;6.75;1.95;;;10.90;68.20;;;;;;5074961;28;19908;-73
2021/05/05 11:44:08;;;;;;;8.50;1.98;;;10.60;68.80;;;;;;5074744;28;20040;-73
2021/05/05 11:46:34;;;;;;;5.20;1.70;;;10.30;70.30;;;;;;5074701;28;20098;-73
2021/05/05 11:49:00;;;;;;;6.75;1.70;;;10.00;71.20;;;;;;5073442;28;20476;-73
2021/05/05 11:51:27;;;;;;;7.05;1.70;;;9.80;72.30;;;;;;5074798;28;20426;-73
2021/05/05 11:53:53;;;;;;;6.00;1.42;;;9.70;72.80;;;;;;5073505;28;20089;-74
2021/05/05 11:56:26;;;;;;;6.35;1.65;;;9.60;73.10;;;;;;5074638;28;20036;-74
2021/05/05 11:59:02;;;;;;;;;;;9.60;73.40;;;;;;5073693;28;20342;-74
2021/05/05 12:01:46;;;;;;;5.00;1.70;;;9.60;73.40;;;;;;5074945;28;19908;-74
2021/05/05 12:04:14;;;;;;;5.00;1.30;;;9.70;73.30;;;;;;5074683;28;20025;-74
2021/05/05 12:06:55;;;;;;;8.93;1.63;;;9.90;73.30;;;;;;5074801;28;20037;-74
2021/05/05 12:09:21;;;;;;;7.47;1.67;;;10.10;72.70;;;;;;5072678;28;20472;-74
2021/05/05 12:11:47;;;;;;;8.05;1.90;;;10.20;72.10;;;;;;5072996;28;20063;-74
2021/05/05 12:14:30;;;;;;;5.95;2.15;;;10.30;67.60;;;;;;5072985;28;20056;-74
2021/05/05 12:16:57;;;;;;;9.00;2.40;;;10.30;66.90;;;;;;5072976;28;20119;-74
2021/05/05 12:19:25;;;;;;;10.98;1.98;;;10.30;67.70;;;;;;5074350;28;20104;-74
2021/05/05 12:21:50;;;;;;;11.05;2.45;;;10.30;68.10;;;;;;5072839;28;20028;-73
2021/05/05 12:24:16;;;;;;;11.70;2.30;;;10.40;68.10;;;;;;5074069;28;20048;-74
2021/05/05 12:26:42;;;;;;;7.82;2.05;;;10.50;68.00;;;;;;5073838;28;20036;-74
2021/05/05 12:29:08;;;;;;;12.23;2.45;;;10.70;67.30;;;;;;5072533;28;20379;-75
2021/05/05 12:31:36;;;;;;;10.52;2.58;;;10.90;67.00;;;;;;5072595;28;20020;-74
2021/05/05 12:34:05;;;;;;;9.60;2.33;;;11.10;66.90;;;;;;5073729;28;20488;-74
2021/05/05 12:36:35;;;;;;;8.05;2.40;;;11.10;65.60;;;;;;5073729;28;20031;-74
2021/05/05 12:39:05;;;;;;;16.65;2.35;;;10.90;67.20;;;;;;5072424;28;20032;-75
2021/05/05 12:41:42;;;;;;;9.40;2.55;;;10.70;68.70;;;;;;5072440;28;20028;-74
2021/05/05 12:44:08;;;;;;;9.85;2.22;;;10.40;69.80;;;;;;5072404;28;20174;-74
2021/05/05 12:46:54;;;;;;;12.30;2.60;;;10.30;70.40;;;;;;5072165;28;20107;-74
2021/05/05 12:49:26;;;;;;;8.32;2.55;;;10.20;69.70;;;;;;5072324;28;20049;-74
2021/05/05 12:51:51;;;;;;;6.93;2.17;;;10.20;69.50;;;;;;5072107;28;20400;-74
2021/05/05 12:54:27;;;;;;;6.68;1.90;;;10.20;68.30;;;;;;5073759;28;20020;-75
2021/05/05 12:56:54;;;;;;;9.65;2.47;;;10.20;67.40;;;;;;5073098;28;20032;-74
2021/05/05 12:59:33;;;;;;;7.28;2.05;;;10.40;64.10;;;;;;5073538;28;20380;-74
2021/05/05 13:02:08;;;;;;;6.78;1.92;;;10.40;63.50;;;;;;5072280;28;20029;-74
2021/05/05 13:04:42;;;;;;;9.27;2.15;;;10.60;62.90;;;;;;5073264;28;20032;-74
2021/05/05 13:07:40;;;;;;;9.88;2.38;;;10.70;62.90;;;;;;5069359;28;20123;-74
2021/05/05 13:10:15;;;;;;;7.60;1.73;;;10.90;59.20;;;;;;5068190;28;20028;-74
2021/05/05 13:13:07;;;;;;;10.90;2.25;;;11.00;59.70;;;;;;5073817;28;20372;-74
2021/05/05 13:15:42;;;;;;;6.60;1.80;;;11.20;58.60;;;;;;5071848;28;20020;-74